createdAt,value
2023-01-19T00:04:07.775Z,91.31
2023-01-19T00:09:11.200Z,91.31
2023-01-19T00:14:14.200Z,91.43
2023-01-19T00:19:17.720Z,91.58
2023-01-19T00:24:21.229Z,91.58
2023-01-19T00:29:24.542Z,91.58
2023-01-19T00:34:27.849Z,91.54
2023-01-19T00:39:30.884Z,91.61
2023-01-19T00:44:34.058Z,91.62
2023-01-19T00:49:37.075Z,91.67
2023-01-19T00:54:40.172Z,91.62
2023-01-19T00:59:43.589Z,91.58
2023-01-19T01:04:46.788Z,91.53
2023-01-19T01:09:51.026Z,91.39
2023-01-19T01:14:54.335Z,91.28
2023-01-19T01:19:57.442Z,91.24
2023-01-19T01:25:00.493Z,91.29
2023-01-19T01:30:04.479Z,91.31
2023-01-19T01:35:10.207Z,91.31
2023-01-19T01:40:16.013Z,91.29
2023-01-19T01:45:38.548Z,91.13
2023-01-19T01:51:26.433Z,91.07
2023-01-19T01:56:41.807Z,91.04
2023-01-19T02:02:03.655Z,91.04
2023-01-19T02:07:26.125Z,91.04
2023-01-19T02:12:48.898Z,91.00
2023-01-19T02:17:52.116Z,90.86
2023-01-19T02:23:02.091Z,90.65
2023-01-19T02:28:05.895Z,90.42
2023-01-19T02:33:09.285Z,90.46
2023-01-19T02:38:16.470Z,90.38
2023-01-19T02:43:20.432Z,90.47
2023-01-19T02:48:23.655Z,90.47
2023-01-19T02:53:32.682Z,90.51
2023-01-19T02:59:09.401Z,90.46
2023-01-19T03:04:40.445Z,90.10
2023-01-19T03:09:57.688Z,89.88
2023-01-19T03:15:14.536Z,89.82
2023-01-19T03:20:25.585Z,89.65
2023-01-19T03:25:33.521Z,89.64
2023-01-19T03:30:46.775Z,89.61
2023-01-19T03:35:58.581Z,89.64
2023-01-19T03:41:08.391Z,89.70
2023-01-19T03:46:13.036Z,89.59
2023-01-19T03:51:17.949Z,89.71
2023-01-19T03:56:25.893Z,89.89
2023-01-19T04:01:29.090Z,89.96
2023-01-19T04:06:32.576Z,89.85
2023-01-19T04:11:35.784Z,89.85
2023-01-19T04:16:38.890Z,89.91
2023-01-19T04:21:42.049Z,90.04
2023-01-19T04:26:45.220Z,89.93
2023-01-19T04:31:48.411Z,89.97
2023-01-19T04:36:51.826Z,90.01
2023-01-19T04:41:56.475Z,89.85
2023-01-19T04:46:59.638Z,89.83
2023-01-19T04:52:02.881Z,90.18
2023-01-19T04:57:06.101Z,90.47
2023-01-19T05:02:09.118Z,90.71
2023-01-19T05:07:12.346Z,90.62
2023-01-19T05:12:16.125Z,90.75
2023-01-19T05:17:19.235Z,90.53
2023-01-19T05:22:22.545Z,90.32
2023-01-19T05:27:25.691Z,90.14
2023-01-19T05:32:28.756Z,90.30
2023-01-19T05:37:32.997Z,90.37
2023-01-19T05:42:37.288Z,90.47
2023-01-19T05:47:40.564Z,90.29
2023-01-19T05:52:43.756Z,90.14
2023-01-19T05:57:46.852Z,90.06
2023-01-19T06:02:50.369Z,90.07
2023-01-19T06:07:57.447Z,90.04
2023-01-19T06:13:00.706Z,90.00
2023-01-19T06:18:04.218Z,90.11
2023-01-19T06:23:07.297Z,90.10
2023-01-19T06:28:10.413Z,90.04
2023-01-19T06:33:13.453Z,89.88
2023-01-19T06:38:18.760Z,89.90
2023-01-19T06:43:22.858Z,89.75
2023-01-19T06:48:26.612Z,89.87
2023-01-19T06:53:30.469Z,89.99
2023-01-19T06:58:35.041Z,89.94
2023-01-19T07:03:38.845Z,89.89
2023-01-19T07:08:42.016Z,89.95
2023-01-19T07:13:51.455Z,90.07
2023-01-19T07:18:54.468Z,89.90
2023-01-19T07:23:58.220Z,89.68
2023-01-19T07:29:01.397Z,89.47
2023-01-19T07:34:04.513Z,89.11
2023-01-19T07:39:07.725Z,89.13
2023-01-19T07:44:10.747Z,89.28
2023-01-19T07:49:13.820Z,89.18
2023-01-19T07:54:17.027Z,89.16
2023-01-19T07:59:20.136Z,89.36
2023-01-19T08:04:23.269Z,89.36
2023-01-19T08:09:26.555Z,89.26
2023-01-19T08:14:29.779Z,89.12
2023-01-19T08:19:32.977Z,89.02
2023-01-19T08:24:36.190Z,88.90
2023-01-19T08:29:39.939Z,88.79
2023-01-19T08:34:43.013Z,88.93
2023-01-19T08:39:46.045Z,88.89
2023-01-19T08:44:57.566Z,88.96
2023-01-19T08:50:01.523Z,89.10
2023-01-19T08:55:06.348Z,88.93
2023-01-19T09:00:11.318Z,88.81
2023-01-19T09:05:15.264Z,88.61
2023-01-19T09:10:19.633Z,88.39
2023-01-19T09:15:22.706Z,88.28
2023-01-19T09:20:25.928Z,88.17
2023-01-19T09:25:29.120Z,88.14
2023-01-19T09:30:33.363Z,88.19
2023-01-19T09:35:38.502Z,88.14
2023-01-19T09:40:47.308Z,88.14
2023-01-19T09:46:00.913Z,88.06
2023-01-19T09:51:12.504Z,87.71
2023-01-19T09:56:19.519Z,87.29
2023-01-19T10:01:47.314Z,87.31
2023-01-19T10:06:56.814Z,87.28
2023-01-19T10:12:41.838Z,87.36
2023-01-19T10:17:50.998Z,87.43
2023-01-19T10:22:59.415Z,87.39
2023-01-19T10:28:02.959Z,87.50
2023-01-19T10:33:06.137Z,87.29
2023-01-19T10:38:15.304Z,87.17
2023-01-19T10:43:41.806Z,87.05
2023-01-19T10:48:50.588Z,86.81
2023-01-19T10:53:59.088Z,86.75
2023-01-19T10:59:05.905Z,86.85
2023-01-19T11:04:29.804Z,86.81
2023-01-19T11:09:32.927Z,86.69
2023-01-19T11:14:36.223Z,86.63
2023-01-19T11:19:39.845Z,86.43
2023-01-19T11:24:44.783Z,86.33
2023-01-19T11:30:19.020Z,86.24
2023-01-19T11:35:37.924Z,86.18
2023-01-19T11:40:42.766Z,86.20
2023-01-19T11:45:46.495Z,86.21
2023-01-19T11:50:50.708Z,86.21
2023-01-19T11:56:04.969Z,86.19
2023-01-19T12:01:34.361Z,86.04
2023-01-19T12:06:53.263Z,86.29
2023-01-19T12:12:06.563Z,86.42
2023-01-19T12:17:32.246Z,86.46
2023-01-19T12:22:50.932Z,86.47
2023-01-19T12:27:55.358Z,86.29
2023-01-19T12:33:21.519Z,86.12
2023-01-19T12:38:33.922Z,86.19
2023-01-19T12:43:37.028Z,86.19
2023-01-19T12:48:41.262Z,86.24
2023-01-19T12:53:56.832Z,86.15
2023-01-19T12:59:01.622Z,86.17
2023-01-19T13:04:34.305Z,86.29
2023-01-19T13:09:39.618Z,86.13
2023-01-19T13:14:44.431Z,85.96
2023-01-19T13:19:55.300Z,85.79
2023-01-19T13:25:14.178Z,85.86
2023-01-19T13:30:21.804Z,85.94
2023-01-19T13:35:25.208Z,85.98
2023-01-19T13:40:39.094Z,85.98
2023-01-19T13:45:50.686Z,86.26
2023-01-19T13:51:07.792Z,86.36
2023-01-19T13:56:22.109Z,86.58
2023-01-19T14:01:28.921Z,86.80
2023-01-19T14:06:40.834Z,86.75
2023-01-19T14:12:05.499Z,86.68
2023-01-19T14:17:23.754Z,86.68
2023-01-19T14:22:43.240Z,86.51
2023-01-19T14:27:46.464Z,86.54
2023-01-19T14:32:49.667Z,86.60
2023-01-19T14:37:53.066Z,86.74
2023-01-19T14:43:03.425Z,86.79
2023-01-19T14:48:19.572Z,87.01
2023-01-19T14:53:26.627Z,87.08
2023-01-19T14:58:33.695Z,87.11
2023-01-19T15:03:45.711Z,87.06
2023-01-19T15:08:50.573Z,86.97
2023-01-19T15:13:55.454Z,87.00
2023-01-19T15:18:58.586Z,87.18
2023-01-19T15:24:01.677Z,87.39
2023-01-19T15:29:25.260Z,87.47
2023-01-19T15:34:28.375Z,87.71
2023-01-19T15:39:32.532Z,87.86
2023-01-19T15:44:35.706Z,87.86
2023-01-19T15:49:39.126Z,87.87
2023-01-19T15:54:42.336Z,87.67
2023-01-19T15:59:45.444Z,87.64
